Time;durP1;ratioP1;P1;durP2;ratioP2;P2;SDS_P1;SDS_P2;PMS_P1;PMS_P2;Temp;Humidity;BMP_temperature;BMP_pressure;BME280_temperature;BME280_humidity;BME280_pressure;Samples;Min_cycle;Max_cycle;Signal;HPM_P1;HPM_P2
2021/09/04 00:02:13;;;;;;;12.47;5.25;;;;;;;15.28;71.16;100991.55;1751445;79;21271;-55
2021/09/04 00:04:41;;;;;;;13.55;5.20;;;;;;;15.22;71.16;100983.77;1751649;81;21943;-55
2021/09/04 00:07:08;;;;;;;13.50;5.55;;;;;;;15.18;71.40;100981.69;1727616;81;21084;-55
2021/09/04 00:09:35;;;;;;;11.53;5.45;;;;;;;15.13;71.52;100977.87;1745904;81;21320;-55
2021/09/04 00:12:04;;;;;;;15.18;5.47;;;;;;;15.10;71.62;100978.52;1765720;81;21612;-56
2021/09/04 00:14:32;;;;;;;10.68;5.90;;;;;;;15.07;71.74;100977.33;1788756;79;21001;-54
2021/09/04 00:17:01;;;;;;;12.68;5.37;;;;;;;15.01;71.93;100978.02;1734919;82;21022;-54
2021/09/04 00:19:28;;;;;;;11.80;5.53;;;;;;;14.94;72.23;100975.72;1737585;81;21088;-55
2021/09/04 00:21:56;;;;;;;11.05;5.03;;;;;;;14.86;72.39;100975.61;1755164;81;21068;-54
2021/09/04 00:24:23;;;;;;;12.70;5.95;;;;;;;14.85;72.66;100976.55;1760678;80;21545;-55
2021/09/04 00:26:51;;;;;;;12.78;5.65;;;;;;;14.84;72.90;100978.86;1738218;79;20961;-55
2021/09/04 00:29:18;;;;;;;8.10;5.00;;;;;;;14.84;73.00;100973.95;1746159;80;21617;-55
2021/09/04 00:31:44;;;;;;;10.38;5.17;;;;;;;14.84;73.11;100976.16;1748634;80;21052;-55
2021/09/04 00:36:47;;;;;;;10.15;4.78;;;;;;;14.76;73.34;100972.98;1763243;80;21080;-55
2021/09/04 00:39:13;;;;;;;11.95;5.37;;;;;;;14.71;73.51;100966.94;1775210;80;20957;-55
2021/09/04 00:41:43;;;;;;;8.58;4.50;;;;;;;14.69;73.76;100971.02;1759054;80;21134;-55
2021/09/04 00:44:17;;;;;;;16.07;4.70;;;;;;;14.69;73.91;100971.47;1744901;82;21044;-54
2021/09/04 00:46:44;;;;;;;12.05;5.47;;;;;;;14.71;74.04;100966.94;1745594;82;21080;-55
2021/09/04 00:49:11;;;;;;;11.63;5.15;;;;;;;14.67;74.36;100966.17;1745718;80;21040;-55
2021/09/04 00:51:38;;;;;;;9.95;5.03;;;;;;;14.65;74.58;100964.48;1747177;80;21494;-54
2021/09/04 00:54:05;;;;;;;9.43;5.47;;;;;;;14.64;74.76;100960.03;1754096;80;21456;-54
2021/09/04 00:56:32;;;;;;;13.35;5.58;;;;;;;14.64;74.83;100960.03;1784351;79;21862;-55
2021/09/04 00:59:04;;;;;;;12.45;4.80;;;;;;;14.63;74.79;100955.59;1766937;81;21033;-55
2021/09/04 01:01:32;;;;;;;8.20;4.40;;;;;;;14.63;74.66;100947.49;1774095;80;21019;-55
2021/09/04 01:03:59;;;;;;;9.95;5.15;;;;;;;14.60;74.53;100948.54;1756129;81;21033;-55
2021/09/04 01:06:26;;;;;;;10.03;5.15;;;;;;;14.58;74.46;100959.39;1756946;80;21365;-55
2021/09/04 01:08:55;;;;;;;9.00;4.97;;;;;;;14.57;74.48;100936.06;1738079;81;20930;-55
2021/09/04 01:11:25;;;;;;;10.78;4.92;;;;;;;14.60;74.19;100945.84;1745783;80;21500;-60
2021/09/04 01:13:54;;;;;;;8.25;4.65;;;;;;;14.61;73.98;100948.45;1745706;81;21081;-55
2021/09/04 01:16:21;;;;;;;9.08;4.45;;;;;;;14.61;73.82;100948.45;1746977;80;21120;-55
2021/09/04 01:18:48;;;;;;;13.05;4.78;;;;;;;14.61;73.66;100941.70;1750787;80;21924;-60
2021/09/04 01:21:15;;;;;;;9.93;4.62;;;;;;;14.61;73.66;100942.19;1752191;80;21744;-54
2021/09/04 01:23:43;;;;;;;10.65;4.70;;;;;;;14.62;73.55;100943.94;1745382;82;21108;-54
2021/09/04 01:26:10;;;;;;;12.00;4.20;;;;;;;14.61;73.51;100936.30;1745084;82;21132;-55
2021/09/04 01:28:39;;;;;;;12.47;5.17;;;;;;;14.63;73.37;100937.59;1746927;81;21072;-55
2021/09/04 01:31:06;;;;;;;12.55;5.22;;;;;;;14.63;73.21;100939.40;1749203;81;21083;-54
2021/09/04 01:33:33;;;;;;;9.88;5.17;;;;;;;14.59;73.07;100932.81;1738760;81;21094;-54
2021/09/04 01:36:00;;;;;;;13.68;4.72;;;;;;;14.57;72.91;100933.36;1776595;79;21045;-54
2021/09/04 01:38:27;;;;;;;8.35;4.70;;;;;;;14.52;72.91;100919.23;1747389;81;21541;-54
2021/09/04 01:40:55;;;;;;;11.35;4.50;;;;;;;14.49;72.91;100924.78;1763048;80;21099;-54
2021/09/04 01:43:22;;;;;;;8.90;4.65;;;;;;;14.49;72.80;100923.89;1767602;80;21534;-55
2021/09/04 01:45:49;;;;;;;8.63;4.53;;;;;;;14.49;72.76;100919.39;1781401;80;21052;-55
2021/09/04 01:48:16;;;;;;;12.82;5.58;;;;;;;14.52;72.50;100916.53;1753172;80;21428;-55
2021/09/04 01:50:43;;;;;;;12.80;6.37;;;;;;;14.52;72.26;100913.84;1763474;80;21534;-55
2021/09/04 01:53:11;;;;;;;16.52;7.80;;;;;;;14.51;72.05;100914.78;1757143;80;21056;-55
2021/09/04 01:55:38;;;;;;;17.50;7.90;;;;;;;14.52;71.61;100912.48;1772130;79;21446;-55
2021/09/04 01:58:05;;;;;;;16.70;6.85;;;;;;;14.52;71.30;100914.30;1803006;79;21025;-56
2021/09/04 02:00:32;;;;;;;13.38;6.33;;;;;;;14.52;70.78;100910.25;1776472;79;21397;-56
2021/09/04 02:02:59;;;;;;;15.18;6.87;;;;;;;14.49;70.57;100905.01;1771067;79;21467;-56
2021/09/04 02:05:32;;;;;;;9.60;5.33;;;;;;;14.45;70.38;100908.32;1755496;80;21054;-56
2021/09/04 02:07:59;;;;;;;13.65;5.72;;;;;;;14.45;70.22;100905.63;1772079;80;21500;-55
2021/09/04 02:10:28;;;;;;;10.98;4.90;;;;;;;14.46;70.10;100909.61;1773865;79;21053;-55
2021/09/04 02:12:55;;;;;;;10.58;5.15;;;;;;;14.46;69.85;100904.67;1747042;81;20964;-55
2021/09/04 02:15:22;;;;;;;11.83;5.25;;;;;;;14.43;69.73;100893.58;1774971;80;21057;-55
2021/09/04 02:17:50;;;;;;;11.22;4.78;;;;;;;14.41;69.64;100894.59;1754284;79;21083;-55
2021/09/04 02:20:19;;;;;;;12.70;4.50;;;;;;;14.39;69.61;100899.19;1768290;80;21036;-55
2021/09/04 02:22:46;;;;;;;12.55;4.47;;;;;;;14.35;69.66;100892.20;1758967;80;21341;-54
2021/09/04 02:25:16;;;;;;;8.78;4.67;;;;;;;14.35;69.73;100892.20;1756241;81;21473;-55
2021/09/04 02:27:44;;;;;;;10.95;4.72;;;;;;;14.34;69.65;100885.91;1759722;80;21706;-56
2021/09/04 02:30:13;;;;;;;12.00;4.40;;;;;;;14.33;69.55;100888.22;1738694;79;21045;-55
2021/09/04 02:32:41;;;;;;;10.00;4.00;;;;;;;14.29;69.58;100891.56;1769091;80;21378;-55
2021/09/04 02:35:09;;;;;;;9.70;3.90;;;;;;;14.30;69.60;100889.25;1746046;80;21421;-56
2021/09/04 02:37:36;;;;;;;10.03;3.90;;;;;;;14.32;69.53;100892.75;1728534;81;21469;-54
2021/09/04 02:40:04;;;;;;;8.25;4.17;;;;;;;14.37;69.45;100890.30;1729413;81;21060;-54
2021/09/04 02:42:31;;;;;;;7.80;3.83;;;;;;;14.40;69.23;100888.34;1757202;80;21036;-55
2021/09/04 02:44:59;;;;;;;6.78;3.80;;;;;;;14.40;69.08;100888.80;1758076;81;22388;-55
2021/09/04 02:47:26;;;;;;;11.53;4.22;;;;;;;14.40;68.94;100892.84;1769530;81;21100;-55
2021/09/04 02:49:54;;;;;;;9.85;4.10;;;;;;;14.40;68.80;100899.13;1754947;81;21086;-57
2021/09/04 02:52:23;;;;;;;8.15;3.85;;;;;;;14.39;68.65;100891.09;1753822;80;21047;-57
2021/09/04 02:54:50;;;;;;;12.63;3.83;;;;;;;14.38;68.33;100896.09;1754657;81;21103;-55
2021/09/04 02:57:19;;;;;;;8.45;3.80;;;;;;;14.33;68.22;100891.80;1750943;81;21788;-54
2021/09/04 02:59:47;;;;;;;6.90;3.27;;;;;;;14.31;68.09;100894.16;1753434;81;20980;-54
2021/09/04 03:02:14;;;;;;;11.03;3.67;;;;;;;14.28;67.96;100892.50;1735863;81;21085;-55
2021/09/04 03:04:42;;;;;;;9.45;3.20;;;;;;;14.32;67.67;100895.91;1761285;80;21008;-56
2021/09/04 03:07:10;;;;;;;7.65;3.60;;;;;;;14.33;67.23;100898.55;1761722;81;21073;-55
2021/09/04 03:09:37;;;;;;;10.10;3.37;;;;;;;14.34;66.90;100900.75;1752217;79;21219;-55
2021/09/04 03:12:06;;;;;;;6.95;3.27;;;;;;;14.32;66.59;100903.54;1756650;81;21036;-55
2021/09/04 03:14:33;;;;;;;7.40;3.62;;;;;;;14.35;66.54;100908.37;1767931;81;21482;-56
2021/09/04 03:17:00;;;;;;;9.20;3.92;;;;;;;14.37;66.23;100898.39;1769697;80;21110;-55
2021/09/04 03:19:28;;;;;;;10.05;4.08;;;;;;;14.40;66.05;100901.82;1766844;81;21519;-55
2021/09/04 03:21:55;;;;;;;13.35;4.22;;;;;;;14.44;65.90;100906.57;1746511;80;21100;-60
2021/09/04 03:24:22;;;;;;;11.08;5.20;;;;;;;14.49;65.56;100907.25;1750887;81;21024;-60
2021/09/04 03:26:50;;;;;;;12.45;5.50;;;;;;;14.50;65.43;100915.73;1738677;81;21089;-55
2021/09/04 03:29:18;;;;;;;12.33;5.72;;;;;;;14.47;65.34;100911.35;1744518;82;21089;-55
2021/09/04 03:31:45;;;;;;;10.75;4.87;;;;;;;14.49;65.41;100913.10;1757470;81;21048;-55
2021/09/04 03:34:12;;;;;;;9.08;4.25;;;;;;;14.48;65.34;100917.64;1783435;79;21145;-54
2021/09/04 03:36:39;;;;;;;8.40;3.67;;;;;;;14.51;65.21;100914.78;1747808;80;21111;-56
2021/09/04 03:39:07;;;;;;;10.40;3.70;;;;;;;14.51;65.13;100914.78;1778779;79;21592;-55
2021/09/04 03:41:34;;;;;;;10.95;3.90;;;;;;;14.51;65.05;100916.14;1771333;80;21034;-55
2021/09/04 03:44:03;;;;;;;12.93;4.50;;;;;;;14.47;65.18;100911.35;1770862;80;21419;-55
2021/09/04 03:46:31;;;;;;;7.67;4.03;;;;;;;14.49;65.38;100914.45;1761882;80;21759;-55
2021/09/04 03:49:00;;;;;;;6.83;3.60;;;;;;;14.50;65.54;100913.04;1756395;80;21024;-56
2021/09/04 03:51:29;;;;;;;11.55;3.22;;;;;;;14.56;65.55;100917.23;1764202;79;21049;-55
2021/09/04 03:53:56;;;;;;;8.45;3.58;;;;;;;14.62;65.61;100914.26;1756904;80;21141;-55
2021/09/04 03:56:24;;;;;;;5.87;3.25;;;;;;;14.70;65.71;100920.59;1756162;81;21513;-55
2021/09/04 03:58:53;;;;;;;10.10;3.80;;;;;;;14.78;65.73;100916.20;1756202;81;21099;-55
2021/09/04 04:01:21;;;;;;;7.40;3.70;;;;;;;14.83;65.66;100916.38;1764574;80;21099;-55
2021/09/04 04:03:51;;;;;;;5.53;3.05;;;;;;;14.85;65.70;100918.52;1761010;80;21016;-55
2021/09/04 04:06:17;;;;;;;7.45;3.58;;;;;;;14.95;65.83;100919.42;1755629;81;21463;-55
2021/09/04 04:08:46;;;;;;;9.50;3.70;;;;;;;15.06;65.77;100921.08;1756905;80;21079;-54
2021/09/04 04:11:13;;;;;;;11.57;4.60;;;;;;;15.12;65.69;100923.46;1756826;80;21673;-55
2021/09/04 04:13:41;;;;;;;15.55;6.42;;;;;;;15.24;65.73;100937.30;1755927;81;20950;-55
2021/09/04 04:16:09;;;;;;;12.28;5.25;;;;;;;15.36;65.43;100934.44;1757460;80;21536;-55
2021/09/04 04:18:36;;;;;;;10.00;4.20;;;;;;;15.49;64.88;100929.26;1757055;80;20976;-57
2021/09/04 04:21:04;;;;;;;8.25;4.30;;;;;;;15.57;64.46;100935.12;1762484;80;21493;-54
2021/09/04 04:23:31;;;;;;;6.53;3.67;;;;;;;15.64;64.35;100937.91;1755907;80;21849;-54
2021/09/04 04:25:58;;;;;;;14.18;4.55;;;;;;;15.79;64.25;100933.97;1757755;80;21519;-55
2021/09/04 04:28:26;;;;;;;9.25;4.30;;;;;;;15.94;63.88;100942.64;1755922;81;21056;-56
2021/09/04 04:30:54;;;;;;;8.20;3.90;;;;;;;16.07;63.48;100937.92;1764415;80;21071;-55
2021/09/04 04:33:21;;;;;;;7.33;4.10;;;;;;;16.16;63.34;100927.47;1759226;81;21872;-56
2021/09/04 04:35:49;;;;;;;8.05;3.58;;;;;;;16.28;63.26;100926.37;1751431;80;21150;-56
2021/09/04 04:38:17;;;;;;;10.82;4.85;;;;;;;16.41;63.23;100923.84;1740548;82;21480;-55
2021/09/04 04:40:45;;;;;;;12.73;4.28;;;;;;;16.57;63.07;100920.66;1738785;81;21088;-56
2021/09/04 04:43:12;;;;;;;13.83;4.60;;;;;;;16.75;62.91;100916.50;1746276;80;20912;-56
2021/09/04 04:45:39;;;;;;;8.95;4.10;;;;;;;16.90;62.72;100920.98;1754789;81;20993;-56
2021/09/04 04:48:06;;;;;;;16.55;4.47;;;;;;;17.02;62.73;100924.86;1743459;82;21139;-55
2021/09/04 04:50:33;;;;;;;12.55;4.80;;;;;;;17.15;62.69;100925.00;1733896;81;21064;-56
2021/09/04 04:53:01;;;;;;;14.90;4.65;;;;;;;17.24;62.63;100924.05;1758144;81;21116;-55
2021/09/04 04:55:29;;;;;;;11.45;4.33;;;;;;;17.29;62.53;100925.98;1723950;82;21059;-56
2021/09/04 04:57:57;;;;;;;13.30;4.22;;;;;;;17.39;62.67;100931.25;1723678;81;21552;-55
2021/09/04 05:00:24;;;;;;;9.93;4.97;;;;;;;17.59;62.62;100934.58;1742066;82;21131;-56
2021/09/04 05:02:51;;;;;;;15.55;5.40;;;;;;;17.85;62.28;100940.21;1753966;81;21008;-56
2021/09/04 05:05:18;;;;;;;16.70;5.25;;;;;;;18.09;61.75;100939.66;1747884;80;21027;-56
2021/09/04 05:07:45;;;;;;;14.80;6.15;;;;;;;18.23;61.45;100935.55;1757123;81;21035;-55
2021/09/04 05:10:14;;;;;;;10.88;4.97;;;;;;;18.30;61.40;100936.92;1742306;81;21403;-55
2021/09/04 05:12:43;;;;;;;24.92;5.95;;;;;;;18.36;61.59;100940.20;1744824;80;20981;-55
2021/09/04 05:15:12;;;;;;;15.98;5.67;;;;;;;18.53;61.91;100937.73;1758812;80;20957;-55
2021/09/04 05:17:40;;;;;;;19.07;5.80;;;;;;;18.74;61.96;100939.53;1766543;80;20953;-55
2021/09/04 05:20:10;;;;;;;21.45;7.15;;;;;;;18.97;61.56;100941.19;1718486;82;21039;-55
2021/09/04 05:22:37;;;;;;;13.88;6.45;;;;;;;19.15;60.84;100944.05;1758215;81;21511;-55
2021/09/04 05:25:07;;;;;;;20.35;6.90;;;;;;;19.33;60.40;100941.02;1748879;80;21083;-55
2021/09/04 05:27:34;;;;;;;14.95;6.67;;;;;;;19.51;59.43;100943.44;1722306;81;21860;-55
2021/09/04 05:30:00;;;;;;;13.78;7.37;;;;;;;19.61;58.48;100938.61;1765266;81;21008;-56
2021/09/04 05:32:27;;;;;;;16.07;6.85;;;;;;;19.74;57.92;100941.83;1747610;80;21059;-56
2021/09/04 05:34:54;;;;;;;15.40;7.20;;;;;;;19.87;57.24;100939.95;1750259;80;21052;-57
2021/09/04 05:37:21;;;;;;;19.75;7.42;;;;;;;20.00;56.78;100939.13;1752343;80;21852;-56
2021/09/04 05:39:48;;;;;;;13.43;6.72;;;;;;;20.09;55.99;100934.88;1751567;80;21048;-56
2021/09/04 05:42:15;;;;;;;15.70;7.17;;;;;;;20.15;55.53;100930.34;1755307;80;21060;-55
2021/09/04 05:44:42;;;;;;;16.80;6.95;;;;;;;20.24;55.19;100922.88;1751227;81;20954;-56
2021/09/04 05:47:09;;;;;;;17.77;6.78;;;;;;;20.30;54.31;100922.41;1751154;81;22150;-55
2021/09/04 05:49:36;;;;;;;20.70;6.90;;;;;;;20.36;54.02;100921.58;1751316;81;21821;-56
2021/09/04 05:52:05;;;;;;;14.73;7.20;;;;;;;20.48;53.87;100924.77;1751136;81;20922;-56
2021/09/04 05:54:32;;;;;;;14.03;6.08;;;;;;;20.60;53.33;100911.58;1753447;80;21040;-54
2021/09/04 05:57:00;;;;;;;15.50;5.60;;;;;;;20.72;52.96;100912.50;1752412;79;21084;-54
2021/09/04 05:59:26;;;;;;;14.33;5.95;;;;;;;20.87;52.57;100909.13;1766513;81;21504;-56
2021/09/04 06:01:54;;;;;;;15.85;6.22;;;;;;;21.20;51.75;100905.80;1760113;81;21121;-54
2021/09/04 06:04:21;;;;;;;14.75;6.08;;;;;;;21.79;50.60;100914.87;1760564;81;21011;-55
2021/09/04 06:06:48;;;;;;;14.65;5.95;;;;;;;22.43;49.48;100911.95;1747883;81;22133;-55
2021/09/04 06:09:15;;;;;;;12.05;4.67;;;;;;;22.96;48.31;100915.81;1779014;79;21029;-55
2021/09/04 06:11:42;;;;;;;11.38;4.17;;;;;;;23.46;46.36;100917.43;1746718;80;20966;-55
2021/09/04 06:14:10;;;;;;;10.40;3.77;;;;;;;23.91;44.86;100915.88;1754405;80;21472;-54
2021/09/04 06:16:37;;;;;;;6.92;4.15;;;;;;;24.65;43.70;100909.69;1754698;81;21037;-55
2021/09/04 06:19:06;;;;;;;13.58;4.22;;;;;;;25.10;42.18;100913.80;1765893;79;20968;-56
2021/09/04 06:21:33;;;;;;;9.25;3.95;;;;;;;25.33;41.38;100911.62;1757851;80;21063;-55
2021/09/04 06:24:01;;;;;;;7.58;3.95;;;;;;;25.45;41.15;100909.05;1759120;80;21032;-55
2021/09/04 06:26:27;;;;;;;12.98;4.00;;;;;;;25.56;40.97;100905.83;1745701;82;22048;-55
2021/09/04 06:28:55;;;;;;;10.72;3.70;;;;;;;25.57;40.33;100905.66;1745817;82;21037;-56
2021/09/04 06:31:22;;;;;;;8.68;3.75;;;;;;;25.51;40.37;100909.00;1746465;80;21016;-56
2021/09/04 06:33:49;;;;;;;11.57;3.80;;;;;;;25.49;39.80;100911.03;1755239;80;21096;-56
2021/09/04 06:36:15;;;;;;;9.68;4.10;;;;;;;25.42;39.72;100916.21;1745945;80;21127;-56
2021/09/04 06:38:43;;;;;;;9.28;4.25;;;;;;;25.35;39.63;100912.34;1746088;81;21131;-56
2021/09/04 06:41:09;;;;;;;8.60;4.03;;;;;;;25.26;39.85;100918.68;1752032;81;21091;-56
2021/09/04 06:43:37;;;;;;;9.98;4.03;;;;;;;25.18;39.99;100911.17;1763392;81;21088;-56
2021/09/04 06:46:05;;;;;;;11.48;3.65;;;;;;;25.13;39.88;100911.64;1739942;81;20942;-56
2021/09/04 06:48:31;;;;;;;14.53;3.98;;;;;;;25.11;39.99;100912.29;1745981;80;21053;-56
2021/09/04 06:50:59;;;;;;;12.75;4.85;;;;;;;25.07;39.91;100908.60;1756120;80;21128;-56
2021/09/04 06:53:26;;;;;;;7.85;3.37;;;;;;;24.91;39.92;100904.55;1742902;81;21621;-56
2021/09/04 06:55:53;;;;;;;9.88;3.83;;;;;;;24.78;40.11;100910.33;1746251;80;21085;-56
2021/09/04 06:58:20;;;;;;;9.73;3.70;;;;;;;24.70;40.40;100917.00;1767025;80;21005;-55
2021/09/04 07:00:48;;;;;;;7.90;4.08;;;;;;;24.71;40.56;100914.63;1764500;80;21063;-56
2021/09/04 07:03:14;;;;;;;11.85;3.83;;;;;;;24.78;40.29;100912.22;1746327;79;21146;-55
2021/09/04 07:05:42;;;;;;;10.48;4.25;;;;;;;24.80;40.02;100913.78;1769221;81;20939;-55
2021/09/04 07:08:09;;;;;;;11.65;4.10;;;;;;;24.77;39.93;100918.19;1766500;81;21087;-55
2021/09/04 07:10:36;;;;;;;10.35;3.87;;;;;;;24.70;39.79;100923.86;1791491;79;21056;-55
2021/09/04 07:13:03;;;;;;;6.40;3.65;;;;;;;24.61;40.09;100922.31;1762642;80;21084;-56
2021/09/04 07:15:30;;;;;;;5.65;3.55;;;;;;;24.58;40.26;100925.34;1768845;81;21136;-55
2021/09/04 07:17:57;;;;;;;11.40;3.87;;;;;;;24.61;40.32;100918.20;1753935;80;21468;-57
2021/09/04 07:20:25;;;;;;;7.25;3.65;;;;;;;24.70;40.23;100918.37;1751703;80;20969;-55
2021/09/04 07:22:52;;;;;;;14.65;4.53;;;;;;;24.82;39.98;100911.77;1751107;81;20965;-55
2021/09/04 07:25:19;;;;;;;10.03;4.05;;;;;;;24.96;39.83;100910.98;1750989;81;21028;-55
2021/09/04 07:27:46;;;;;;;6.80;3.50;;;;;;;25.09;39.67;100921.17;1751819;80;21103;-56
2021/09/04 07:30:15;;;;;;;5.55;3.22;;;;;;;25.21;39.39;100910.03;1755253;80;21053;-55
2021/09/04 07:32:43;;;;;;;9.33;3.45;;;;;;;25.36;38.64;100903.09;1761252;81;21091;-55
2021/09/04 07:35:11;;;;;;;7.45;3.52;;;;;;;25.49;38.10;100908.78;1737267;81;21469;-55
2021/09/04 07:37:38;;;;;;;5.97;3.33;;;;;;;25.56;37.37;100914.06;1767809;79;21099;-55
2021/09/04 07:40:06;;;;;;;9.85;3.25;;;;;;;25.51;37.21;100910.87;1766030;80;21197;-55
2021/09/04 07:42:33;;;;;;;8.30;3.50;;;;;;;25.44;37.48;100912.81;1738115;81;21542;-55
2021/09/04 07:45:00;;;;;;;10.82;3.72;;;;;;;25.48;37.42;100898.81;1757074;80;21060;-55
2021/09/04 07:47:27;;;;;;;8.70;3.45;;;;;;;25.55;37.01;100890.38;1759304;80;21125;-56
2021/09/04 07:49:55;;;;;;;11.45;3.67;;;;;;;25.58;36.73;100901.90;1737767;81;20992;-55
2021/09/04 07:52:22;;;;;;;10.05;3.75;;;;;;;25.64;36.68;100899.07;1748971;81;21137;-56
2021/09/04 07:54:49;;;;;;;10.70;3.35;;;;;;;25.79;36.45;100899.98;1794647;79;21651;-55
2021/09/04 07:57:17;;;;;;;9.03;3.80;;;;;;;25.86;35.90;100890.98;1769227;79;21076;-56
2021/09/04 07:59:43;;;;;;;15.35;4.08;;;;;;;25.86;36.09;100892.85;1746004;80;21005;-56
2021/09/04 08:02:10;;;;;;;11.60;3.45;;;;;;;25.89;36.17;100885.19;1746334;80;21517;-56
2021/09/04 08:04:37;;;;;;;5.80;3.45;;;;;;;26.01;35.66;100888.60;1752461;80;21847;-56
2021/09/04 08:07:04;;;;;;;10.60;3.90;;;;;;;26.08;35.63;100896.23;1748359;80;21068;-56
2021/09/04 08:09:31;;;;;;;6.85;3.92;;;;;;;26.21;35.74;100890.41;1759079;80;21104;-55
2021/09/04 08:11:58;;;;;;;9.53;3.60;;;;;;;26.40;35.41;100885.29;1764397;80;21008;-56
2021/09/04 08:14:25;;;;;;;12.85;3.67;;;;;;;26.53;34.90;100891.29;1748403;81;21004;-56
2021/09/04 08:16:53;;;;;;;5.47;3.20;;;;;;;26.58;34.70;100890.30;1745319;80;21533;-57
2021/09/04 08:19:20;;;;;;;5.40;2.92;;;;;;;26.55;34.81;100885.13;1772480;80;21059;-56
2021/09/04 08:21:47;;;;;;;10.05;3.30;;;;;;;26.55;34.97;100888.40;1757638;80;21092;-56
2021/09/04 08:24:14;;;;;;;4.60;3.02;;;;;;;26.64;35.07;100885.19;1777105;80;21485;-58
2021/09/04 08:26:42;;;;;;;5.45;3.77;;;;;;;26.74;35.20;100878.59;1752485;80;21036;-57
2021/09/04 08:29:10;;;;;;;5.70;3.83;;;;;;;26.80;35.56;100888.11;1757608;80;21553;-57
2021/09/04 08:31:37;;;;;;;7.22;3.70;;;;;;;26.89;35.70;100882.21;1747018;80;21091;-58
2021/09/04 08:34:04;;;;;;;5.87;3.80;;;;;;;26.97;35.91;100882.30;1751062;80;21109;-57
2021/09/04 08:36:32;;;;;;;5.80;4.35;;;;;;;27.05;35.92;100882.86;1777312;80;21072;-56
2021/09/04 08:39:00;;;;;;;6.80;4.30;;;;;;;27.08;35.88;100882.56;1726718;82;21671;-57
2021/09/04 08:41:26;;;;;;;10.20;4.85;;;;;;;27.15;35.85;100883.65;1768578;80;21505;-56
2021/09/04 08:43:53;;;;;;;6.70;4.15;;;;;;;27.22;35.72;100888.00;1767515;80;20972;-55
2021/09/04 08:46:20;;;;;;;10.72;4.37;;;;;;;27.23;35.85;100881.97;1778471;80;21087;-55
2021/09/04 08:48:47;;;;;;;10.75;5.03;;;;;;;27.28;36.00;100885.09;1759474;80;21294;-55
2021/09/04 08:51:14;;;;;;;7.03;4.37;;;;;;;27.39;36.07;100884.85;1752830;80;21048;-55
2021/09/04 08:53:41;;;;;;;7.28;4.83;;;;;;;27.54;36.02;100873.29;1751308;80;21469;-55
2021/09/04 08:56:09;;;;;;;11.08;4.37;;;;;;;27.67;35.75;100873.69;1750389;80;21082;-56
2021/09/04 08:58:37;;;;;;;7.65;4.75;;;;;;;27.74;35.44;100878.04;1728076;80;21008;-55
2021/09/04 09:01:18;;;;;;;13.53;5.22;;;;;;;27.85;35.24;100877.77;1771964;80;21036;-55
2021/09/04 09:03:45;;;;;;;12.07;5.15;;;;;;;27.96;34.93;100875.20;1770430;80;21518;-57
2021/09/04 09:06:29;;;;;;;11.73;4.85;;;;;;;28.06;34.71;100870.94;1756003;80;21032;-55
2021/09/04 09:08:56;;;;;;;10.28;4.62;;;;;;;28.15;34.57;100867.70;1734533;81;21081;-56
2021/09/04 09:11:24;;;;;;;10.82;4.92;;;;;;;28.19;34.26;100859.51;1738083;82;20984;-57
2021/09/04 09:13:54;;;;;;;9.20;4.97;;;;;;;28.22;34.13;100854.16;1761336;80;21393;-55
2021/09/04 09:16:23;;;;;;;14.18;6.28;;;;;;;28.20;33.54;100866.74;1720185;82;21064;-56
2021/09/04 09:19:03;;;;;;;8.08;4.90;;;;;;;28.06;33.89;100879.73;1723826;80;21037;-56
2021/09/04 09:21:40;;;;;;;6.47;4.92;;;;;;;27.84;34.26;100870.50;1749964;81;21001;-54
2021/09/04 09:24:14;;;;;;;12.18;5.08;;;;;;;27.74;34.45;100866.52;1776512;80;21076;-55
2021/09/04 09:26:56;;;;;;;8.20;4.97;;;;;;;27.78;34.31;100871.70;1766661;80;21126;-55
2021/09/04 09:29:26;;;;;;;8.08;4.97;;;;;;;27.84;34.31;100866.91;1759134;80;21075;-55
2021/09/04 09:32:10;;;;;;;12.47;5.35;;;;;;;27.87;34.18;100874.33;1781383;80;21119;-56
2021/09/04 09:34:41;;;;;;;7.75;5.25;;;;;;;27.91;34.22;100872.09;1757259;80;21493;-56
2021/09/04 09:37:09;;;;;;;7.58;4.90;;;;;;;27.97;34.47;100871.45;1749980;80;21112;-55
2021/09/04 09:39:38;;;;;;;7.20;4.97;;;;;;;28.01;34.41;100875.59;1764905;80;21604;-55
2021/09/04 09:42:07;;;;;;;6.58;4.87;;;;;;;27.98;34.37;100876.42;1756288;80;21458;-56
2021/09/04 09:44:35;;;;;;;8.65;5.15;;;;;;;27.85;34.12;100882.40;1734356;81;21136;-56
2021/09/04 09:47:09;;;;;;;12.45;5.28;;;;;;;27.64;33.81;100876.78;1720877;82;21107;-57
2021/09/04 09:49:39;;;;;;;7.40;4.95;;;;;;;27.49;33.45;100872.86;1751197;80;21139;-56
2021/09/04 09:52:09;;;;;;;16.62;4.83;;;;;;;27.32;33.45;100864.52;1781721;80;21505;-56
2021/09/04 09:54:36;;;;;;;14.20;4.65;;;;;;;27.16;33.20;100868.86;1772867;80;21103;-56
2021/09/04 09:57:07;;;;;;;8.43;4.78;;;;;;;27.06;33.50;100862.58;1749712;81;21131;-55
2021/09/04 09:59:34;;;;;;;13.15;4.75;;;;;;;27.05;32.99;100860.85;1779542;80;21099;-56
2021/09/04 10:02:15;;;;;;;9.23;4.33;;;;;;;27.06;32.96;100861.20;1744863;80;21020;-56
2021/09/04 10:04:46;;;;;;;8.28;4.58;;;;;;;27.12;32.75;100866.09;1759316;80;21088;-56
2021/09/04 10:07:13;;;;;;;8.25;4.37;;;;;;;27.15;32.53;100858.88;1740467;80;21565;-56
2021/09/04 10:09:40;;;;;;;10.32;4.45;;;;;;;27.14;32.56;100862.66;1755683;80;20976;-56
2021/09/04 10:12:08;;;;;;;9.43;4.90;;;;;;;27.19;32.22;100858.55;1775543;80;21052;-57
2021/09/04 10:14:36;;;;;;;8.90;4.65;;;;;;;27.20;32.16;100847.41;1756983;80;21502;-57
2021/09/04 10:17:06;;;;;;;5.53;3.98;;;;;;;27.24;31.79;100852.93;1781579;80;21469;-58
2021/09/04 10:19:35;;;;;;;9.65;4.92;;;;;;;27.36;31.75;100865.91;1780421;80;21126;-56
2021/09/04 10:22:06;;;;;;;10.90;4.53;;;;;;;27.51;31.72;100865.30;1755318;80;21422;-57
2021/09/04 10:24:50;;;;;;;6.30;4.67;;;;;;;27.65;31.09;100868.86;1747695;82;21004;-57
2021/09/04 10:27:39;;;;;;;9.23;4.80;;;;;;;27.78;30.77;100870.32;1780580;80;21040;-56
2021/09/04 10:30:27;;;;;;;7.53;5.03;;;;;;;27.83;30.71;100861.05;1781736;80;21025;-56
2021/09/04 10:33:09;;;;;;;8.43;4.42;;;;;;;27.83;30.38;100856.91;1779617;80;21048;-55
2021/09/04 10:35:52;;;;;;;12.68;4.87;;;;;;;27.74;30.88;100858.27;1749808;80;21130;-56
2021/09/04 10:38:23;;;;;;;17.98;4.92;;;;;;;27.86;31.06;100860.70;1743378;80;21052;-56
2021/09/04 10:40:52;;;;;;;7.55;4.58;;;;;;;27.99;30.88;100851.98;1746272;80;22183;-62
2021/09/04 10:43:20;;;;;;;9.53;4.67;;;;;;;27.98;30.37;100866.28;1745834;82;21501;-62
2021/09/04 10:45:50;;;;;;;10.48;4.70;;;;;;;27.79;30.81;100856.90;1745488;82;21088;-62
2021/09/04 10:48:21;;;;;;;5.75;4.53;;;;;;;27.71;31.10;100855.81;1745777;82;21108;-61
2021/09/04 10:51:08;;;;;;;7.70;4.40;;;;;;;27.81;30.99;100859.81;1745443;80;21509;-61
2021/09/04 10:53:45;;;;;;;8.90;5.35;;;;;;;27.87;30.89;100854.17;1745634;81;21486;-61
2021/09/04 10:56:22;;;;;;;6.40;4.40;;;;;;;27.91;30.72;100863.82;1767078;80;21055;-56
2021/09/04 10:58:50;;;;;;;14.55;4.42;;;;;;;27.97;30.55;100852.16;1780721;79;20886;-55
2021/09/04 11:01:30;;;;;;;6.78;4.78;;;;;;;28.07;30.46;100856.66;1781824;79;21154;-55
2021/09/04 11:03:57;;;;;;;10.08;5.00;;;;;;;28.02;30.33;100849.77;1779909;79;21064;-57
2021/09/04 11:06:25;;;;;;;7.85;4.47;;;;;;;27.98;30.62;100841.49;1771968;79;21474;-56
2021/09/04 11:08:54;;;;;;;7.00;4.22;;;;;;;27.99;30.17;100845.97;1743572;81;21001;-56
2021/09/04 11:11:36;;;;;;;7.75;4.67;;;;;;;28.00;30.29;100844.94;1736434;81;21084;-56
2021/09/04 11:14:20;;;;;;;10.68;5.45;;;;;;;28.07;30.39;100847.86;1746433;80;21619;-56
2021/09/04 11:16:52;;;;;;;7.42;4.50;;;;;;;28.17;30.22;100838.11;1745962;80;20949;-56
2021/09/04 11:19:32;;;;;;;7.17;4.40;;;;;;;28.23;30.19;100837.47;1767537;80;21049;-56
2021/09/04 11:22:10;;;;;;;7.03;4.40;;;;;;;28.26;30.29;100831.61;1765581;80;21009;-56
2021/09/04 11:24:43;;;;;;;5.85;4.55;;;;;;;28.27;30.11;100841.61;1755605;79;21053;-56
2021/09/04 11:27:19;;;;;;;13.30;5.67;;;;;;;28.29;30.22;100833.14;1735481;82;21498;-57
2021/09/04 11:29:49;;;;;;;11.53;5.20;;;;;;;28.28;30.42;100830.05;1767066;79;21045;-56
2021/09/04 11:32:18;;;;;;;11.50;5.10;;;;;;;28.17;30.60;100838.11;1739087;81;21076;-56